• Join FlightAware (Why Join?)
  • Login
  • US Flag 
03:48PM EST


 

Airport Tracker/Info


-or-


 

Live Flight TrackerFlight Track Log ✈ N447SC ✈ 15-Sep-2013 ✈ KCPS - KBMI

Flight Track Log - Related Links

Times and Time Zones

All times are in EDT time to prevent confusion due to time zone crossing. See the N447SC flight status page for this flight to view local times or setup timezone preferences in your user account.

Time Position Orientation Groundspeed Altitude Reporting Facility
EDT Latitude Longitude Course Direction KTS MPH feet Rate Location/Type
06:15PM 38.5667 -90.1167 27° Northeast 105 121 1,500  Level Gateway (St. Louis) TRACON
06:16PM 38.5833 -90.1000 38° Northeast 112 129 2,300 540 Climbing Gateway (St. Louis) TRACON
06:17PM 38.6167 -90.0667 38° Northeast 139 160 2,600 240 Climbing Gateway (St. Louis) TRACON
06:18PM 38.6325 -90.0589 21° North 135 155 2,700 600 Climbing Kansas City Center
06:19PM 38.6661 -90.0308 33° Northeast 142 163 3,600 960 Climbing Kansas City Center
06:20PM 38.7017 -90.0028 32° Northeast 134 154 4,800 960 Climbing Kansas City Center
06:21PM 38.8316 -89.9856 27° Northeast  Level FlightAware Approximate
06:21PM 38.7256 -89.9897 23° Northeast 109 125 5,700  Level Kansas City Center
06:22PM 38.7489 -89.9803 18° North 90 104 6,500 720 Climbing Kansas City Center
06:23PM 38.7725 -89.9653 26° Northeast 93 107 7,200 240 Climbing Kansas City Center
06:24PM 38.8047 -89.9444 27° Northeast 126 145 7,000 -60 Descending Kansas City Center
06:25PM 38.8456 -89.9200 25° Northeast 155 178 7,100  Climbing Kansas City Center
06:26PM 38.8975 -89.8917 23° Northeast 167 192 7,100  Level Kansas City Center
06:27PM 38.9447 -89.8661 23° Northeast 169 194 7,100 -60 Level Kansas City Center
06:28PM 38.9886 -89.8397 25° Northeast 173 199 7,000 -60 Descending Kansas City Center
06:29PM 39.0364 -89.8122 24° Northeast 174 200 7,000  Level Kansas City Center
06:30PM 39.0811 -89.7883 23° Northeast 174 200 7,100  Climbing Kansas City Center
06:31PM 39.1253 -89.7617 25° Northeast 175 201 7,000 -60 Descending Kansas City Center
06:32PM 39.1733 -89.7294 27° Northeast 178 205 7,000  Level Kansas City Center
06:33PM 39.2167 -89.7042 24° Northeast 179 206 7,000  Level Kansas City Center
06:34PM 39.2619 -89.6761 26° Northeast 181 208 7,100  Climbing Kansas City Center
06:36PM 39.3517 -89.6169 27° Northeast 182 209 7,000 -60 Descending Kansas City Center
06:37PM 39.4064 -89.5817 26° Northeast 183 211 7,000  Level Kansas City Center
06:38PM 39.4522 -89.5536 25° Northeast 183 211 7,100  Climbing Kansas City Center
06:39PM 39.4983 -89.5219 28° Northeast 184 212 7,000 -60 Descending Kansas City Center
06:40PM 39.5442 -89.4944 25° Northeast 184 212 7,000  Level Kansas City Center
06:42PM 39.5908 -89.4678 24° Northeast 183 211 7,100  Climbing Kansas City Center
06:43PM 39.6361 -89.4386 26° Northeast 183 211 7,000  Descending Kansas City Center
06:44PM 39.6908 -89.4067 24° Northeast 181 208 7,100  Climbing Kansas City Center
06:45PM 39.7369 -89.3781 26° Northeast 181 208 7,000  Descending Kansas City Center
06:46PM 39.7833 -89.3500 25° Northeast 183 211 7,100  Climbing Kansas City Center
06:47PM 39.8283 -89.3214 26° Northeast 182 209 7,100 -60 Level Kansas City Center
06:48PM 39.8750 -89.2931 25° Northeast 184 212 7,000 -60 Descending Kansas City Center
06:49PM 39.9211 -89.2650 25° Northeast 184 212 7,000  Level Kansas City Center
06:50PM 39.9761 -89.2300 26° Northeast 184 212 7,100 -240 Climbing Kansas City Center
06:51PM 40.0233 -89.2033 23° Northeast 185 213 6,600 -540 Descending Kansas City Center
06:52PM 40.0719 -89.1747 24° Northeast 190 219 6,000 -660 Descending Kansas City Center
06:53PM 40.1164 -89.1469 26° Northeast 182 209 5,300 -720 Descending Kansas City Center
06:54PM 40.1597 -89.1192 26° Northeast 176 203 4,600 -780 Descending Kansas City Center
06:55PM 40.2042 -89.0933 24° Northeast 174 200 3,700 -1,020 Descending Kansas City Center
06:56PM 40.2564 -89.0578 27° Northeast 175 201 2,600 -960 Descending Kansas City Center
06:56PM 40.2753 -89.0436 30° Northeast 179 206 2,300 -180 Descending Chicago Center
06:58PM 40.3189 -89.0111 30° Northeast 180 207 2,400  Climbing Chicago Center
06:59PM 40.3664 -88.9708 33° Northeast 176 203 2,300 -240 Descending Chicago Center
07:00PM 40.4025 -88.9281 42° Northeast 175 201 2,000 -300 Descending Chicago Center
07:01PM 40.4378 -88.8875 41° Northeast 174 200 1,800 -300 Descending Chicago Center
07:02PM 40.4694 -88.8761 15° North 147 169 1,400 -420 Descending Chicago Center